Time;durP1;ratioP1;P1;durP2;ratioP2;P2;SDS_P1;SDS_P2;PMS_P1;PMS_P2;Temp;Humidity;BMP_temperature;BMP_pressure;BME280_temperature;BME280_humidity;BME280_pressure;Samples;Min_cycle;Max_cycle;Signal;HPM_P1;HPM_P2
2022/02/09 00:01:30;;;;;;;1.90;0.65;;;10.50;85.70;;;;;;6230698;28;20049;-81
2022/02/09 00:04:39;;;;;;;2.00;0.82;;;10.60;85.60;;;;;;6227739;28;20385;-79
2022/02/09 00:07:48;;;;;;;2.42;0.60;;;10.60;85.50;;;;;;6228656;28;20080;-81
2022/02/09 00:10:56;;;;;;;2.47;0.82;;;10.60;85.30;;;;;;6231707;28;20106;-81
2022/02/09 00:14:10;;;;;;;;;;;10.60;85.40;;;;;;6231468;28;20054;-81
2022/02/09 00:24:27;;;;;;;2.88;0.77;;;10.60;85.30;;;;;;6206317;28;20042;-81
2022/02/09 00:28:05;;;;;;;1.27;0.80;;;10.60;85.30;;;;;;6205934;28;20044;-82
2022/02/09 00:31:42;;;;;;;4.50;0.60;;;10.60;85.30;;;;;;6205910;28;20102;-80
2022/02/09 00:35:13;;;;;;;1.15;0.60;;;10.60;85.50;;;;;;6205362;28;20046;-81
2022/02/09 00:41:56;;;;;;;3.20;0.75;;;10.60;85.50;;;;;;6184979;28;20053;-82
2022/02/09 00:45:24;;;;;;;1.17;0.60;;;10.70;85.50;;;;;;6206080;28;20054;-82
2022/02/09 01:39:00;;;;;;;2.80;0.90;;;10.70;85.90;;;;;;6210176;28;20416;-82
2022/02/09 01:55:36;;;;;;;2.03;0.60;;;10.80;85.50;;;;;;6211302;28;20121;-81
2022/02/09 01:58:38;;;;;;;3.17;0.70;;;10.70;85.40;;;;;;6209414;28;20257;-81
2022/02/09 02:01:40;;;;;;;2.50;0.93;;;10.70;85.30;;;;;;6207729;28;20046;-82
2022/02/09 02:04:44;;;;;;;2.45;0.70;;;10.70;85.40;;;;;;6211252;28;20050;-81
2022/02/09 02:07:50;;;;;;;3.85;0.90;;;10.70;85.30;;;;;;6210209;28;20054;-82
2022/02/09 02:11:03;;;;;;;2.42;0.80;;;10.70;85.30;;;;;;6210682;28;20421;-82
2022/02/09 02:14:22;;;;;;;3.03;0.80;;;10.80;85.40;;;;;;6224760;28;20210;-83
2022/02/09 02:17:31;;;;;;;3.60;0.60;;;10.80;85.30;;;;;;6206334;28;20558;-82
2022/02/09 02:20:41;;;;;;;2.72;0.70;;;10.80;85.00;;;;;;6207210;28;20050;-82
2022/02/09 02:24:06;;;;;;;1.40;0.73;;;10.80;85.00;;;;;;6206759;28;20042;-82
2022/02/09 02:27:29;;;;;;;5.60;0.98;;;10.90;84.90;;;;;;6205753;28;20043;-80
2022/02/09 02:31:11;;;;;;;2.13;0.75;;;10.90;84.80;;;;;;6205755;28;20057;-82
2022/02/09 02:56:46;;;;;;;1.70;0.73;;;11.00;84.30;;;;;;6240187;28;20042;-80
2022/02/09 02:58:17;;;;;;;3.40;0.82;;;10.90;84.20;;;;;;6235070;28;20049;-79
2022/02/09 03:11:33;;;;;;;;;;;11.00;84.40;;;;;;6218497;28;20050;-79
2022/02/09 03:14:44;;;;;;;1.50;0.65;;;11.00;84.30;;;;;;6229223;28;19921;-81
2022/02/09 03:17:59;;;;;;;2.70;0.88;;;11.00;84.00;;;;;;6228389;28;20060;-80
2022/02/09 03:21:09;;;;;;;1.52;0.82;;;11.00;84.00;;;;;;6229438;28;20077;-81
2022/02/09 03:24:15;;;;;;;5.13;0.65;;;11.00;84.10;;;;;;6229623;28;20491;-80
2022/02/09 03:27:30;;;;;;;3.13;0.82;;;11.00;84.10;;;;;;6228421;28;20050;-80
2022/02/09 03:44:17;;;;;;;3.03;1.27;;;11.00;84.20;;;;;;6228500;28;20081;-80
2022/02/09 03:51:08;;;;;;;3.05;1.15;;;10.90;84.40;;;;;;6180201;28;20420;-81
2022/02/09 03:54:18;;;;;;;3.42;1.60;;;10.90;84.50;;;;;;6209291;28;20049;-80
2022/02/09 03:57:25;;;;;;;5.82;1.20;;;10.90;84.60;;;;;;6219693;28;20492;-79
2022/02/09 04:00:29;;;;;;;1.97;0.90;;;10.80;84.50;;;;;;6198604;28;20145;-79
2022/02/09 04:03:32;;;;;;;8.75;2.22;;;10.80;84.60;;;;;;6197688;28;20133;-81
2022/02/09 04:06:36;;;;;;;1.45;0.82;;;10.80;84.60;;;;;;6197678;28;20050;-79
2022/02/09 04:09:43;;;;;;;5.40;1.33;;;10.80;84.70;;;;;;6198345;28;20124;-79
2022/02/09 04:12:48;;;;;;;3.05;1.23;;;10.80;84.70;;;;;;6198833;28;20053;-79
2022/02/09 04:15:59;;;;;;;4.18;1.10;;;10.80;84.80;;;;;;6198089;28;20097;-79
2022/02/09 04:19:09;;;;;;;7.32;1.30;;;10.70;84.90;;;;;;6197518;28;20046;-79
2022/02/09 04:38:55;;;;;;;3.72;1.27;;;10.70;85.10;;;;;;6212997;28;20053;-79
2022/02/09 04:42:33;;;;;;;4.78;1.73;;;10.70;85.20;;;;;;6214573;28;20053;-79
2022/02/09 04:45:59;;;;;;;4.50;2.05;;;10.60;85.30;;;;;;6202547;28;20042;-79
2022/02/09 04:52:33;;;;;;;7.53;2.90;;;10.60;85.40;;;;;;6203115;28;20077;-80
2022/02/09 04:55:48;;;;;;;9.82;2.40;;;10.50;85.70;;;;;;6201965;28;20108;-78
2022/02/09 04:59:03;;;;;;;5.93;2.78;;;10.40;86.00;;;;;;6202885;28;20050;-78
2022/02/09 05:02:35;;;;;;;5.00;2.33;;;10.40;86.20;;;;;;6202434;28;20530;-78
2022/02/09 05:17:48;;;;;;;5.45;2.70;;;10.40;86.30;;;;;;6202998;28;20081;-79
2022/02/09 05:22:50;;;;;;;11.10;4.07;;;10.10;88.10;;;;;;6202349;28;20050;-79
2022/02/09 05:26:03;;;;;;;18.00;4.60;;;10.10;87.60;;;;;;6203399;28;20051;-78
2022/02/09 05:29:05;;;;;;;11.27;4.47;;;10.00;87.60;;;;;;6202785;28;20054;-79
2022/02/09 05:32:08;;;;;;;11.82;4.30;;;10.00;87.60;;;;;;6204002;28;20072;-79
2022/02/09 05:35:10;;;;;;;9.18;4.25;;;9.90;87.70;;;;;;6202395;28;20050;-78
2022/02/09 05:38:13;;;;;;;8.10;4.25;;;9.90;87.60;;;;;;6202492;28;20046;-78
2022/02/09 05:41:16;;;;;;;11.63;3.60;;;10.00;87.50;;;;;;6205184;28;20512;-80
2022/02/09 05:44:18;;;;;;;16.17;4.57;;;9.90;87.30;;;;;;6202941;28;20101;-79
2022/02/09 05:47:56;;;;;;;11.13;3.95;;;10.00;87.10;;;;;;6201749;28;20423;-79
2022/02/09 05:51:01;;;;;;;9.80;2.35;;;10.10;87.00;;;;;;6202176;28;20144;-79
2022/02/09 05:54:20;;;;;;;6.90;3.40;;;10.10;86.50;;;;;;6201974;28;20046;-79
2022/02/09 05:57:41;;;;;;;12.45;2.92;;;10.10;86.30;;;;;;6201524;28;20121;-78
2022/02/09 06:00:47;;;;;;;11.43;3.08;;;10.10;85.50;;;;;;6203084;28;20054;-79
2022/02/09 06:03:49;;;;;;;10.73;2.83;;;9.90;84.70;;;;;;6202566;28;20042;-79
2022/02/09 06:06:51;;;;;;;9.25;3.08;;;9.80;84.70;;;;;;6203538;28;20061;-78
2022/02/09 06:09:52;;;;;;;10.10;2.72;;;9.80;84.50;;;;;;6202609;28;20072;-78
2022/02/09 06:13:09;;;;;;;9.70;3.10;;;9.80;84.00;;;;;;6202540;28;20493;-80
2022/02/09 06:19:39;;;;;;;10.27;2.95;;;9.80;83.50;;;;;;6225408;28;20054;-80
2022/02/09 06:19:42;;;;;;;13.68;4.57;;;9.70;83.60;;;;;;6224277;28;20050;-79
2022/02/09 06:22:44;;;;;;;8.63;2.75;;;9.60;83.00;;;;;;6224856;28;20073;-82
2022/02/09 06:25:46;;;;;;;13.60;6.15;;;9.50;83.40;;;;;;6224197;28;20093;-80
2022/02/09 06:28:49;;;;;;;9.55;2.95;;;9.60;83.30;;;;;;6225507;28;20141;-79
2022/02/09 06:31:51;;;;;;;17.13;4.18;;;9.50;83.70;;;;;;6225600;28;20052;-79
2022/02/09 06:34:53;;;;;;;6.75;3.00;;;9.40;83.10;;;;;;6224048;28;20200;-81
2022/02/09 06:37:57;;;;;;;6.57;3.13;;;9.30;83.30;;;;;;6224541;28;20037;-81
2022/02/09 06:40:59;;;;;;;8.27;2.53;;;9.30;83.50;;;;;;6224524;28;20054;-80
2022/02/09 06:44:03;;;;;;;7.22;2.90;;;9.30;83.50;;;;;;6224419;28;20408;-80
2022/02/09 06:47:05;;;;;;;7.70;3.60;;;9.20;83.30;;;;;;6224884;28;20148;-80
2022/02/09 06:50:11;;;;;;;8.32;3.30;;;9.10;83.60;;;;;;6225420;28;20131;-80
2022/02/09 06:53:28;;;;;;;9.70;2.72;;;8.90;83.70;;;;;;6225176;28;20520;-81
2022/02/09 06:56:43;;;;;;;11.30;3.10;;;8.80;83.80;;;;;;6231764;28;20077;-80
2022/02/09 06:59:46;;;;;;;13.23;3.28;;;8.80;83.80;;;;;;6231199;28;20042;-80
2022/02/09 07:02:48;;;;;;;6.97;1.92;;;8.60;83.40;;;;;;6231641;28;20078;-81
2022/02/09 07:05:50;;;;;;;9.63;2.58;;;8.50;83.90;;;;;;6231803;28;20177;-81
2022/02/09 07:08:52;;;;;;;11.23;2.45;;;8.40;83.80;;;;;;6232181;28;20131;-81
2022/02/09 07:11:54;;;;;;;5.72;1.70;;;8.20;83.70;;;;;;6230039;28;20056;-81
2022/02/09 07:14:57;;;;;;;7.57;2.63;;;8.10;84.00;;;;;;6230557;28;20475;-79
2022/02/09 07:18:06;;;;;;;9.65;2.75;;;8.10;84.00;;;;;;6250641;23;20045;-84
2022/02/09 07:21:13;;;;;;;8.05;1.95;;;8.00;83.70;;;;;;6199672;28;20085;-83
2022/02/09 07:24:18;;;;;;;6.70;2.38;;;8.00;83.80;;;;;;6201155;28;20043;-83
2022/02/09 07:27:38;;;;;;;14.32;2.60;;;8.00;83.70;;;;;;6199171;28;20073;-83
2022/02/09 07:30:43;;;;;;;12.95;2.67;;;8.10;83.70;;;;;;6199919;28;20050;-84
2022/02/09 07:33:46;;;;;;;7.35;2.25;;;8.20;83.10;;;;;;6199707;28;20435;-83
2022/02/09 07:36:47;;;;;;;9.63;3.35;;;8.30;83.20;;;;;;6199723;28;20136;-83
2022/02/09 07:39:49;;;;;;;11.45;3.30;;;8.30;83.10;;;;;;6199684;28;20046;-83
2022/02/09 07:42:54;;;;;;;10.90;2.90;;;8.40;82.80;;;;;;6200892;28;20042;-82
2022/02/09 07:49:25;;;;;;;9.45;3.70;;;8.60;82.70;;;;;;6200509;28;20054;-84
2022/02/09 07:52:26;;;;;;;13.82;3.03;;;8.50;82.60;;;;;;6200011;28;20476;-84
2022/02/09 07:55:28;;;;;;;8.00;3.20;;;8.60;83.00;;;;;;6199595;28;20054;-83
2022/02/09 07:58:30;;;;;;;7.32;3.38;;;8.50;83.10;;;;;;6199767;28;20163;-83
2022/02/09 08:01:33;;;;;;;7.05;3.45;;;8.60;82.90;;;;;;6200610;28;20173;-83
2022/02/09 08:04:35;;;;;;;11.07;3.55;;;8.60;83.00;;;;;;6199217;28;20070;-83
2022/02/09 08:07:36;;;;;;;10.55;3.53;;;8.70;82.70;;;;;;6199678;28;20052;-83
2022/02/09 08:10:45;;;;;;;6.95;3.15;;;8.80;82.70;;;;;;6201120;28;20069;-83
2022/02/09 08:21:05;;;;;;;10.45;3.15;;;9.20;81.30;;;;;;6167864;28;1063047;-84
2022/02/09 08:27:35;;;;;;;7.63;2.70;;;9.50;79.70;;;;;;6204881;28;20042;-83
2022/02/09 08:30:48;;;;;;;9.37;2.90;;;9.70;79.10;;;;;;6205213;28;20042;-83
2022/02/09 08:33:51;;;;;;;12.48;3.38;;;10.00;78.00;;;;;;6206243;28;20049;-83
2022/02/09 08:36:54;;;;;;;13.20;2.42;;;10.30;77.30;;;;;;6181324;28;20153;-83
2022/02/09 08:39:56;;;;;;;9.40;3.22;;;10.60;76.50;;;;;;6205396;28;20050;-83
2022/02/09 08:42:59;;;;;;;4.03;2.03;;;10.90;75.10;;;;;;6207655;28;20099;-85
2022/02/09 08:46:01;;;;;;;5.50;2.22;;;11.20;74.50;;;;;;6212493;28;20046;-84
2022/02/09 08:49:04;;;;;;;5.82;2.40;;;11.50;72.30;;;;;;6206589;28;20058;-85
2022/02/09 08:52:07;;;;;;;7.07;2.60;;;11.70;71.00;;;;;;6213784;28;20050;-87
2022/02/09 08:55:09;;;;;;;8.00;2.40;;;12.00;70.00;;;;;;6225592;28;20503;-86
2022/02/09 08:58:12;;;;;;;7.93;3.42;;;12.20;68.80;;;;;;6229240;28;20046;-84
2022/02/09 09:01:24;;;;;;;10.30;2.40;;;12.40;68.20;;;;;;6229164;28;20061;-85
2022/02/09 09:04:32;;;;;;;4.43;2.00;;;12.60;67.10;;;;;;6217322;28;20050;-87
2022/02/09 09:07:37;;;;;;;9.00;2.63;;;12.70;66.60;;;;;;6188380;28;20061;-85
2022/02/09 09:10:47;;;;;;;6.20;2.00;;;13.10;66.10;;;;;;6190297;28;20042;-87
2022/02/09 09:17:35;;;;;;;6.43;1.85;;;13.80;63.60;;;;;;6204553;28;20042;-86
2022/02/09 10:01:18;;;;;;;8.20;3.08;;;16.60;57.00;;;;;;6177337;28;20501;-82
2022/02/09 10:35:09;;;;;;;8.55;2.03;;;17.70;52.70;;;;;;6200946;28;20066;-83
2022/02/09 10:38:33;;;;;;;6.10;2.05;;;18.00;52.00;;;;;;6186844;28;20051;-83
2022/02/09 10:41:41;;;;;;;4.85;1.60;;;18.30;51.40;;;;;;6177580;28;20567;-82
2022/02/09 10:44:48;;;;;;;7.60;1.30;;;18.50;50.30;;;;;;6178034;28;20043;-83
2022/02/09 10:47:49;;;;;;;5.53;2.17;;;18.50;49.90;;;;;;6178614;28;20047;-86
2022/02/09 10:50:51;;;;;;;6.45;1.92;;;18.30;50.40;;;;;;6178163;28;20129;-84
2022/02/09 10:54:08;;;;;;;3.95;1.73;;;18.30;49.90;;;;;;6177964;28;20082;-84
2022/02/09 10:57:11;;;;;;;6.53;1.98;;;18.40;49.80;;;;;;6178015;28;20540;-85
2022/02/09 11:00:15;;;;;;;7.32;2.25;;;18.40;49.40;;;;;;6178133;28;20087;-84
2022/02/09 11:03:19;;;;;;;7.20;2.05;;;18.50;49.30;;;;;;6178553;28;20579;-84
2022/02/09 11:06:22;;;;;;;4.03;1.77;;;18.60;48.20;;;;;;6184056;28;20052;-86
2022/02/09 11:09:24;;;;;;;8.35;1.85;;;18.70;48.30;;;;;;6190328;28;20076;-84
2022/02/09 11:12:26;;;;;;;13.27;2.75;;;18.90;47.70;;;;;;6181747;28;20137;-84
2022/02/09 11:15:30;;;;;;;6.47;2.03;;;19.10;47.00;;;;;;6178054;28;20531;-85
2022/02/09 11:18:32;;;;;;;7.90;2.35;;;19.20;46.20;;;;;;6177601;28;20464;-87
2022/02/09 11:21:37;;;;;;;5.70;2.03;;;19.30;46.00;;;;;;6177730;28;20067;-87
2022/02/09 11:24:44;;;;;;;4.95;1.83;;;19.50;45.30;;;;;;6179212;28;20524;-86
2022/02/09 11:27:52;;;;;;;4.55;2.05;;;19.50;44.80;;;;;;6178480;28;20043;-84
2022/02/09 11:31:10;;;;;;;6.13;2.83;;;19.40;44.90;;;;;;6176575;28;20058;-86
2022/02/09 11:34:18;;;;;;;5.27;2.63;;;19.20;45.40;;;;;;6176891;28;20050;-87
2022/02/09 11:37:27;;;;;;;4.10;2.00;;;19.30;44.90;;;;;;6184447;28;20075;-85
2022/02/09 11:40:36;;;;;;;6.60;2.60;;;19.30;45.00;;;;;;6176764;28;20080;-84
2022/02/09 11:47:40;;;;;;;4.97;2.05;;;19.40;43.40;;;;;;6176358;28;20070;-85
2022/02/09 11:51:03;;;;;;;6.25;2.10;;;19.30;43.50;;;;;;6176186;28;20508;-85
2022/02/09 12:11:58;;;;;;;6.68;2.00;;;20.60;43.40;;;;;;6182441;28;20130;-85
2022/02/09 12:15:11;;;;;;;;;;;20.70;41.30;;;;;;6194021;28;20046;-83
2022/02/09 12:18:25;;;;;;;6.07;2.40;;;20.90;41.80;;;;;;6197581;28;20292;-84
2022/02/09 12:21:45;;;;;;;4.68;1.70;;;20.90;40.90;;;;;;6198029;28;20046;-84
2022/02/09 12:24:47;;;;;;;3.85;1.60;;;20.90;41.70;;;;;;6198214;28;20432;-83
2022/02/09 12:27:49;;;;;;;9.75;2.45;;;21.00;40.60;;;;;;6198085;28;20046;-84
2022/02/09 12:31:03;;;;;;;8.02;1.92;;;21.00;40.60;;;;;;6197976;28;20053;-85
2022/02/09 12:34:06;;;;;;;6.00;1.88;;;20.80;39.90;;;;;;6198262;28;20130;-83
2022/02/09 12:37:14;;;;;;;4.07;1.70;;;20.80;40.10;;;;;;6185507;28;20045;-84
2022/02/09 12:40:18;;;;;;;5.93;1.58;;;20.60;39.80;;;;;;6175586;28;20057;-83
2022/02/09 12:43:20;;;;;;;9.43;1.67;;;20.30;40.50;;;;;;6174673;28;20093;-85
2022/02/09 12:46:25;;;;;;;6.60;2.08;;;20.30;39.50;;;;;;6175261;28;20436;-83
2022/02/09 12:49:31;;;;;;;7.15;1.83;;;20.30;40.40;;;;;;6174825;28;20122;-82
2022/02/09 12:52:36;;;;;;;5.05;1.73;;;20.40;40.00;;;;;;6175101;28;20061;-83
2022/02/09 12:55:41;;;;;;;4.55;1.67;;;20.50;39.40;;;;;;6173931;28;20051;-82
2022/02/09 12:58:43;;;;;;;6.60;2.15;;;20.40;38.40;;;;;;6175057;28;20074;-83
2022/02/09 13:01:48;;;;;;;2.05;1.20;;;20.40;39.20;;;;;;6175291;28;20047;-83
2022/02/09 13:05:01;;;;;;;4.30;1.58;;;20.50;38.70;;;;;;6177214;28;20050;-83
2022/02/09 13:08:05;;;;;;;4.30;1.27;;;20.60;38.10;;;;;;6188426;28;20055;-84
2022/02/09 13:11:17;;;;;;;7.07;1.23;;;20.60;38.10;;;;;;6189322;28;20053;-83
2022/02/09 13:14:27;;;;;;;4.25;0.98;;;20.60;38.10;;;;;;6200413;28;20520;-83
2022/02/09 13:17:56;;;;;;;10.10;1.90;;;20.60;37.80;;;;;;6204732;28;20066;-84
2022/02/09 14:50:31;;;;;;;2.63;1.38;;;21.10;39.90;;;;;;6324685;28;20408;-83
2022/02/09 14:53:28;;;;;;;3.20;1.30;;;21.00;40.00;;;;;;6326485;28;20064;-84
2022/02/09 14:56:46;;;;;;;6.45;1.10;;;21.10;40.30;;;;;;6325567;28;20052;-83
2022/02/09 15:00:05;;;;;;;7.70;1.55;;;21.20;39.50;;;;;;6330963;28;20044;-84
2022/02/09 15:03:20;;;;;;;;;;;21.20;39.90;;;;;;6325092;28;20044;-84
2022/02/09 15:10:00;;;;;;;4.47;1.02;;;21.00;39.20;;;;;;6309550;28;20042;-84
2022/02/09 15:13:15;;;;;;;3.17;1.00;;;20.80;39.60;;;;;;6335392;28;20058;-81
2022/02/09 15:16:23;;;;;;;4.07;1.17;;;20.60;40.20;;;;;;6324899;28;20527;-81
2022/02/09 15:19:36;;;;;;;;;;;20.50;40.30;;;;;;6324543;28;20048;-82
2022/02/09 15:22:41;;;;;;;2.92;1.00;;;20.30;40.30;;;;;;6326821;28;19920;-82
2022/02/09 15:25:44;;;;;;;5.78;2.10;;;20.00;40.80;;;;;;6323221;28;20051;-82
2022/02/09 15:28:46;;;;;;;2.97;1.23;;;19.80;41.60;;;;;;6314085;28;20055;-81
2022/02/09 15:31:52;;;;;;;1.73;0.80;;;19.70;41.80;;;;;;6304317;28;20052;-81
2022/02/09 15:34:57;;;;;;;3.92;0.95;;;19.70;41.80;;;;;;6306705;28;20052;-82
2022/02/09 15:38:03;;;;;;;2.20;0.93;;;19.50;42.20;;;;;;6305575;28;20040;-82
2022/02/09 15:41:16;;;;;;;1.90;0.75;;;19.40;42.90;;;;;;6307973;28;20102;-85
2022/02/09 15:58:08;;;;;;;10.90;3.90;;;18.40;43.50;;;;;;6313394;28;20505;-81
2022/02/09 16:11:35;;;;;;;3.97;1.08;;;17.00;46.50;;;;;;6256682;28;20056;-80
2022/02/09 16:25:14;;;;;;;3.47;1.08;;;15.30;50.50;;;;;;6303705;28;20040;-82
2022/02/09 16:38:52;;;;;;;3.67;0.85;;;14.00;53.60;;;;;;6281231;28;20053;-84
2022/02/09 16:45:15;;;;;;;4.00;1.00;;;13.40;55.50;;;;;;6305733;28;20040;-83
2022/02/09 16:48:18;;;;;;;2.22;0.82;;;13.20;56.90;;;;;;6307416;28;20051;-83
2022/02/09 16:51:22;;;;;;;2.95;1.00;;;12.90;57.50;;;;;;6306405;28;20045;-83
2022/02/09 16:54:34;;;;;;;2.65;1.02;;;12.50;58.00;;;;;;6305609;28;20044;-83
2022/02/09 17:21:10;;;;;;;4.60;1.05;;;10.80;68.10;;;;;;6305657;28;20044;-83
2022/02/09 17:24:13;;;;;;;5.40;0.70;;;10.60;68.10;;;;;;6307847;28;20079;-83
2022/02/09 17:27:18;;;;;;;5.40;1.40;;;10.40;69.50;;;;;;6309280;28;20123;-82
2022/02/09 17:33:59;;;;;;;6.20;0.88;;;10.10;70.60;;;;;;6302463;28;20257;-82
2022/02/09 17:53:50;;;;;;;6.35;0.90;;;9.20;74.30;;;;;;6279628;28;20036;-81
2022/02/09 17:56:54;;;;;;;2.45;0.63;;;9.00;74.70;;;;;;6303810;28;20111;-81
2022/02/09 18:00:10;;;;;;;3.50;1.33;;;8.80;75.00;;;;;;6305833;28;20040;-81
2022/02/09 18:03:12;;;;;;;9.05;1.30;;;8.70;75.50;;;;;;6306922;28;20044;-82
2022/02/09 18:06:19;;;;;;;2.20;0.90;;;8.60;75.80;;;;;;6306157;28;20048;-81
2022/02/09 18:09:29;;;;;;;3.13;1.20;;;8.50;77.70;;;;;;6311751;28;20420;-83
2022/02/09 18:12:49;;;;;;;2.72;0.88;;;8.40;77.40;;;;;;6313950;28;20052;-82
2022/02/09 18:16:08;;;;;;;2.22;0.98;;;8.30;77.20;;;;;;6309801;28;20048;-82
2022/02/09 18:29:26;;;;;;;2.58;1.10;;;8.00;78.10;;;;;;6304837;28;20052;-82
2022/02/09 18:43:00;;;;;;;5.22;0.82;;;7.80;78.80;;;;;;6342517;28;20039;-81
2022/02/09 18:46:09;;;;;;;3.67;1.38;;;7.60;79.20;;;;;;6346398;28;20062;-81
2022/02/09 19:02:41;;;;;;;8.10;1.90;;;7.10;81.30;;;;;;6330272;28;20036;-82
2022/02/09 19:05:47;;;;;;;3.28;1.40;;;7.10;81.50;;;;;;6310009;28;20041;-82
2022/02/09 19:19:02;;;;;;;5.38;1.50;;;6.90;82.20;;;;;;6306571;28;20072;-81
2022/02/09 19:29:22;;;;;;;4.40;2.00;;;6.70;82.30;;;;;;6316809;28;20460;-81
2022/02/09 19:32:57;;;;;;;5.90;2.30;;;6.70;83.20;;;;;;6315784;28;20056;-82
2022/02/09 19:46:18;;;;;;;3.17;1.23;;;6.40;84.20;;;;;;6357702;27;20469;-82
2022/02/09 19:49:35;;;;;;;6.30;1.55;;;6.30;84.30;;;;;;6316152;28;20046;-81
2022/02/09 19:53:10;;;;;;;5.40;1.58;;;6.30;84.30;;;;;;6335356;28;20052;-83
2022/02/09 19:56:16;;;;;;;2.25;1.05;;;6.20;84.50;;;;;;6334436;28;20064;-83
2022/02/09 19:59:20;;;;;;;5.13;1.42;;;6.10;84.50;;;;;;6334489;28;20574;-81
2022/02/09 20:02:25;;;;;;;14.10;2.35;;;6.10;85.50;;;;;;6333565;28;20059;-82
2022/02/09 20:05:27;;;;;;;6.10;2.83;;;6.00;86.20;;;;;;6333031;28;20087;-81
2022/02/09 20:08:28;;;;;;;5.45;1.65;;;5.90;86.00;;;;;;6334531;28;20133;-81
2022/02/09 20:11:30;;;;;;;6.32;3.15;;;5.90;86.10;;;;;;6333388;28;20064;-81
2022/02/09 20:14:32;;;;;;;7.75;2.10;;;5.90;86.70;;;;;;6333481;28;20036;-81
2022/02/09 20:17:35;;;;;;;4.22;1.63;;;5.80;87.00;;;;;;6332095;28;20045;-81
2022/02/09 20:20:37;;;;;;;6.18;2.50;;;5.70;86.90;;;;;;6333559;28;20078;-81
2022/02/09 20:23:39;;;;;;;7.40;2.08;;;5.70;87.20;;;;;;6332775;28;20043;-81
2022/02/09 20:26:41;;;;;;;6.10;1.85;;;5.60;87.10;;;;;;6334559;28;20127;-81
2022/02/09 20:29:43;;;;;;;6.10;2.13;;;5.60;87.50;;;;;;6333017;28;20124;-80
2022/02/09 20:32:50;;;;;;;10.05;2.00;;;5.60;87.30;;;;;;6329705;28;20087;-82
2022/02/09 20:35:52;;;;;;;13.75;2.50;;;5.50;87.30;;;;;;6332934;28;20047;-81
2022/02/09 20:38:57;;;;;;;8.25;2.47;;;5.50;87.50;;;;;;6335592;28;20064;-82
2022/02/09 20:42:00;;;;;;;4.40;2.55;;;5.50;88.00;;;;;;6328379;28;20052;-79
2022/02/09 20:45:10;;;;;;;9.18;2.10;;;5.50;87.60;;;;;;6323876;28;20052;-81
2022/02/09 20:48:15;;;;;;;6.55;2.55;;;5.40;87.50;;;;;;6324975;28;20080;-80
2022/02/09 20:51:17;;;;;;;8.70;3.08;;;5.30;87.50;;;;;;6322804;28;20044;-83
2022/02/09 20:54:18;;;;;;;9.30;2.92;;;5.30;87.60;;;;;;6324537;28;20040;-83
2022/02/09 20:57:20;;;;;;;8.15;3.10;;;5.20;87.60;;;;;;6314081;28;20146;-81
2022/02/09 21:00:30;;;;;;;8.35;2.40;;;5.10;87.50;;;;;;6310328;28;20131;-81
2022/02/09 21:03:45;;;;;;;7.60;3.38;;;5.10;87.50;;;;;;6308340;28;20048;-81
2022/02/09 21:07:03;;;;;;;4.25;2.10;;;5.00;88.20;;;;;;6305895;28;20485;-81
2022/02/09 21:10:17;;;;;;;4.80;2.22;;;5.00;88.00;;;;;;6308132;28;20048;-81
2022/02/09 21:13:28;;;;;;;5.13;3.03;;;4.90;88.00;;;;;;6305579;28;20044;-83
2022/02/09 21:16:46;;;;;;;11.07;2.75;;;4.80;88.20;;;;;;6312844;28;20135;-82
2022/02/09 21:20:15;;;;;;;7.93;2.55;;;4.80;89.80;;;;;;6305781;28;20123;-81
2022/02/09 21:23:32;;;;;;;10.10;2.67;;;4.80;89.60;;;;;;6283617;28;20508;-82
2022/02/09 21:26:54;;;;;;;4.85;2.90;;;4.70;89.30;;;;;;6305851;28;20079;-81
2022/02/09 21:33:36;;;;;;;;;;;4.60;90.20;;;;;;6308650;28;20052;-81
2022/02/09 21:53:48;;;;;;;7.50;2.85;;;4.30;90.20;;;;;;6304021;28;20076;-82
2022/02/09 21:56:54;;;;;;;2.80;1.88;;;4.30;90.10;;;;;;6306873;28;20059;-81
2022/02/09 22:00:22;;;;;;;3.67;1.63;;;4.20;90.00;;;;;;6306239;28;20048;-81
2022/02/09 22:19:15;;;;;;;5.00;1.90;;;4.00;90.10;;;;;;6290890;28;20397;-79
2022/02/09 22:20:19;;;;;;;3.55;1.85;;;4.00;90.20;;;;;;6304721;28;20506;-80
2022/02/09 22:26:52;;;;;;;6.80;2.60;;;3.90;90.20;;;;;;6317088;28;20048;-81
2022/02/09 22:30:25;;;;;;;3.45;1.90;;;3.90;90.20;;;;;;6320900;28;20502;-81
2022/02/09 22:50:25;;;;;;;9.10;3.08;;;3.70;90.30;;;;;;6226468;28;20513;-81
2022/02/09 22:56:46;;;;;;;5.15;2.67;;;3.60;90.30;;;;;;6309232;28;20044;-82
2022/02/09 22:59:59;;;;;;;9.88;2.28;;;3.60;90.20;;;;;;6306589;28;20058;-81
2022/02/09 23:03:01;;;;;;;11.77;3.85;;;3.50;90.30;;;;;;6308721;28;20060;-81
2022/02/09 23:09:41;;;;;;;7.25;2.35;;;3.40;90.70;;;;;;6308117;28;20055;-81
2022/02/09 23:12:48;;;;;;;4.07;1.80;;;3.30;90.70;;;;;;6307910;28;20057;-82
2022/02/09 23:16:06;;;;;;;5.70;2.40;;;3.30;90.70;;;;;;6306780;28;20047;-82
2022/02/09 23:26:42;;;;;;;3.72;2.35;;;3.30;90.70;;;;;;6307597;28;20056;-83
2022/02/09 23:56:48;;;;;;;5.03;2.30;;;2.90;90.80;;;;;;6284846;28;20080;-83
